createdAt,value
2022-10-15T00:00:43.446Z,96532.56
2022-10-15T00:03:10.220Z,96522.22
2022-10-15T00:05:38.416Z,96529.09
2022-10-15T00:08:05.927Z,96529.75
2022-10-15T00:10:33.087Z,96520.81
2022-10-15T00:13:00.114Z,96528.44
2022-10-15T00:15:26.977Z,96526.38
2022-10-15T00:17:53.733Z,96522.91
2022-10-15T00:20:20.410Z,96527.09
2022-10-15T00:22:47.153Z,96517.38
2022-10-15T00:25:13.836Z,96532.00
2022-10-15T00:27:40.578Z,96536.75
2022-10-15T00:30:07.787Z,96533.28
2022-10-15T00:32:34.643Z,96530.56
2022-10-15T00:35:05.216Z,96536.41
2022-10-15T00:37:32.011Z,96546.72
2022-10-15T00:39:58.653Z,96539.66
2022-10-15T00:42:25.667Z,96551.38
2022-10-15T00:44:55.654Z,96539.50
2022-10-15T00:47:48.997Z,96534.03
2022-10-15T00:50:24.173Z,96552.69
2022-10-15T00:53:01.893Z,96551.28
2022-10-15T00:55:37.519Z,96555.41
2022-10-15T00:58:27.833Z,96558.88
2022-10-15T01:00:55.984Z,96561.00
2022-10-15T01:03:23.167Z,96560.22
2022-10-15T01:05:51.583Z,96573.41
2022-10-15T01:08:18.465Z,96566.53
2022-10-15T01:10:57.460Z,96560.28
2022-10-15T01:13:35.621Z,96564.47
2022-10-15T01:16:20.544Z,96566.53
2022-10-15T01:18:59.515Z,96572.75
2022-10-15T01:21:35.695Z,96567.88
2022-10-15T01:24:30.856Z,96567.22
2022-10-15T01:27:04.278Z,96577.59
2022-10-15T01:29:38.515Z,96578.28
2022-10-15T01:32:10.783Z,96574.25
2022-10-15T01:35:05.171Z,96568.72
2022-10-15T01:37:52.487Z,96574.19
2022-10-15T01:40:46.940Z,96570.72
2022-10-15T01:43:18.146Z,96575.53
2022-10-15T01:46:08.864Z,96581.06
2022-10-15T01:48:43.194Z,96581.06
2022-10-15T01:51:12.212Z,96575.59
2022-10-15T01:53:40.164Z,96576.88
2022-10-15T01:56:10.318Z,96576.81
2022-10-15T01:58:47.300Z,96574.75
2022-10-15T02:01:14.419Z,96573.41
2022-10-15T02:03:59.416Z,96583.13
2022-10-15T02:06:37.503Z,96577.59
2022-10-15T02:09:12.472Z,96580.34
2022-10-15T02:12:41.733Z,96574.19
2022-10-15T02:15:18.164Z,96568.59
2022-10-15T02:18:02.587Z,96581.00
2022-10-15T02:20:35.568Z,96581.00
2022-10-15T02:23:30.278Z,96576.13
2022-10-15T02:26:01.834Z,96569.88
2022-10-15T02:28:29.500Z,96569.78
2022-10-15T02:30:56.952Z,96569.09
2022-10-15T02:33:25.179Z,96569.78
2022-10-15T02:35:52.497Z,96565.75
2022-10-15T02:38:21.223Z,96560.19
2022-10-15T02:40:48.832Z,96574.06
2022-10-15T02:43:20.217Z,96559.44
2022-10-15T02:45:48.012Z,96562.22
2022-10-15T02:48:16.291Z,96565.72
2022-10-15T02:50:43.312Z,96566.31
2022-10-15T02:53:13.244Z,96556.69
2022-10-15T02:55:42.251Z,96555.97
2022-10-15T02:58:09.072Z,96561.50
2022-10-15T03:00:35.805Z,96562.84
2022-10-15T03:03:02.636Z,96564.97
2022-10-15T03:05:29.693Z,96554.66
2022-10-15T03:07:57.356Z,96558.72
2022-10-15T03:10:24.069Z,96560.78
2022-10-15T03:12:50.842Z,96556.69
2022-10-15T03:15:17.986Z,96566.31
2022-10-15T03:17:46.215Z,96569.09
2022-10-15T03:20:15.919Z,96569.09
2022-10-15T03:22:43.263Z,96564.91
2022-10-15T03:25:10.515Z,96571.81
2022-10-15T03:27:38.043Z,96577.97
2022-10-15T03:30:13.130Z,96577.34
2022-10-15T03:32:41.406Z,96578.69
2022-10-15T03:35:08.417Z,96573.16
2022-10-15T03:37:35.659Z,96570.38
2022-10-15T03:40:03.262Z,96571.72
2022-10-15T03:42:30.067Z,96571.72
2022-10-15T03:44:56.996Z,96569.59
2022-10-15T03:47:23.734Z,96565.44
2022-10-15T03:49:50.468Z,96565.44
2022-10-15T03:52:17.823Z,96557.84
2022-10-15T03:54:46.681Z,96573.72
2022-10-15T03:57:16.500Z,96566.84
2022-10-15T03:59:47.713Z,96564.06
2022-10-15T04:02:16.084Z,96566.13
2022-10-15T04:04:43.175Z,96564.72
2022-10-15T04:07:09.917Z,96562.66
2022-10-15T04:09:37.251Z,96566.13
2022-10-15T04:12:23.052Z,96560.59
2022-10-15T04:14:50.332Z,96571.66
2022-10-15T04:17:17.818Z,96559.91
2022-10-15T04:19:45.164Z,96561.97
2022-10-15T04:22:14.748Z,96554.38
2022-10-15T04:24:47.029Z,96559.91
2022-10-15T04:27:26.028Z,96574.44
2022-10-15T04:29:58.354Z,96568.19
2022-10-15T04:32:25.446Z,96572.31
2022-10-15T04:34:52.292Z,96566.78
2022-10-15T04:37:26.734Z,96560.53
2022-10-15T04:39:53.528Z,96569.53
2022-10-15T04:42:20.255Z,96569.53
2022-10-15T04:44:47.949Z,96565.38
2022-10-15T04:47:14.696Z,96566.69
2022-10-15T04:49:48.961Z,96566.69
2022-10-15T04:52:48.620Z,96568.84
2022-10-15T04:55:17.258Z,96571.59
2022-10-15T04:57:43.908Z,96570.19
2022-10-15T05:00:11.730Z,96566.69
2022-10-15T05:02:57.175Z,96572.97
2022-10-15T05:05:34.511Z,96576.44
2022-10-15T05:08:04.907Z,96568.75
2022-10-15T05:10:54.228Z,96580.16
2022-10-15T05:13:21.131Z,96589.66
2022-10-15T05:15:49.129Z,96577.06
2022-10-15T05:18:15.862Z,96588.13
2022-10-15T05:20:49.798Z,96604.00
2022-10-15T05:23:19.124Z,96589.47
2022-10-15T05:25:55.104Z,96602.59
2022-10-15T05:28:28.479Z,96598.31
2022-10-15T05:31:01.771Z,96593.59
2022-10-15T05:33:28.980Z,96589.41
2022-10-15T05:35:55.826Z,96599.13
2022-10-15T05:38:23.940Z,96604.00
2022-10-15T05:40:50.644Z,96592.88
2022-10-15T05:43:20.880Z,96598.47
2022-10-15T05:45:48.550Z,96591.53
2022-10-15T05:48:15.796Z,96601.88
2022-10-15T05:50:43.079Z,96598.41
2022-10-15T05:53:14.523Z,96603.84
2022-10-15T05:55:46.558Z,96602.94
2022-10-15T05:58:13.251Z,96601.97
2022-10-15T06:00:39.937Z,96599.19
2022-10-15T06:03:06.668Z,96604.34
2022-10-15T06:05:33.734Z,96614.50
2022-10-15T06:08:00.494Z,96607.81
2022-10-15T06:10:28.622Z,96603.25
2022-10-15T06:12:55.606Z,96613.31
2022-10-15T06:15:22.265Z,96615.34
2022-10-15T06:17:53.164Z,96599.56
2022-10-15T06:20:20.510Z,96609.34
2022-10-15T06:22:47.209Z,96611.38
2022-10-15T06:25:14.043Z,96617.00
2022-10-15T06:27:40.949Z,96621.72
2022-10-15T06:30:08.870Z,96628.53
2022-10-15T06:32:39.416Z,96629.53
2022-10-15T06:35:06.850Z,96636.06
2022-10-15T06:37:35.946Z,96641.91
2022-10-15T06:40:03.835Z,96638.34
2022-10-15T06:42:30.484Z,96646.47
2022-10-15T06:44:57.191Z,96637.31
2022-10-15T06:47:24.246Z,96652.56
2022-10-15T06:49:51.176Z,96655.19
2022-10-15T06:52:17.884Z,96659.34
2022-10-15T06:54:44.857Z,96661.72
2022-10-15T06:57:13.712Z,96663.31
2022-10-15T06:59:41.526Z,96668.19
2022-10-15T07:02:14.263Z,96666.88
2022-10-15T07:04:41.001Z,96666.22
2022-10-15T07:07:07.640Z,96668.44
2022-10-15T07:09:35.456Z,96678.69
2022-10-15T07:12:02.770Z,96676.41
2022-10-15T07:14:29.938Z,96670.00
2022-10-15T07:16:56.894Z,96664.50
2022-10-15T07:19:26.313Z,96669.00
2022-10-15T07:21:53.097Z,96665.28
2022-10-15T07:24:19.828Z,96661.53
2022-10-15T07:26:49.802Z,96658.91
2022-10-15T07:29:16.829Z,96653.06
2022-10-15T07:31:46.913Z,96663.16
2022-10-15T07:34:16.276Z,96659.91
2022-10-15T07:36:42.906Z,96654.72
2022-10-15T07:39:10.463Z,96658.09
2022-10-15T07:41:37.184Z,96665.19
2022-10-15T07:44:03.947Z,96666.72
2022-10-15T07:46:30.871Z,96664.34
2022-10-15T07:48:57.603Z,96676.91
2022-10-15T07:51:24.212Z,96680.28
2022-10-15T07:53:50.942Z,96669.47
2022-10-15T07:56:17.679Z,96663.78
2022-10-15T07:58:51.673Z,96667.56
2022-10-15T08:01:20.267Z,96664.81
2022-10-15T08:03:47.427Z,96666.59
2022-10-15T08:06:14.527Z,96672.56
2022-10-15T08:08:41.543Z,96673.72
2022-10-15T08:11:16.136Z,96677.56
2022-10-15T08:13:44.133Z,96672.50
2022-10-15T08:16:12.454Z,96686.47
2022-10-15T08:18:39.360Z,96679.69
2022-10-15T08:21:07.872Z,96676.06
2022-10-15T08:23:35.624Z,96682.38
2022-10-15T08:26:03.062Z,96675.59
2022-10-15T08:28:31.409Z,96687.88
2022-10-15T08:31:02.768Z,96684.69
2022-10-15T08:33:32.891Z,96684.63
2022-10-15T08:35:59.645Z,96673.47
2022-10-15T08:38:26.576Z,96676.38
2022-10-15T08:40:55.638Z,96681.47
2022-10-15T08:43:26.539Z,96672.69
2022-10-15T08:45:57.257Z,96671.63
2022-10-15T08:48:36.705Z,96678.09
2022-10-15T08:51:08.968Z,96677.63
2022-10-15T08:53:41.165Z,96680.88
2022-10-15T08:56:30.577Z,96690.19
2022-10-15T08:59:28.684Z,96694.53
2022-10-15T09:02:04.152Z,96683.06
2022-10-15T09:04:55.485Z,96676.81
2022-10-15T09:07:22.513Z,96688.16
2022-10-15T09:09:52.490Z,96692.19
2022-10-15T09:12:22.674Z,96712.56
2022-10-15T09:14:50.164Z,96698.78
2022-10-15T09:17:25.975Z,96689.00
2022-10-15T09:19:55.000Z,96694.91
2022-10-15T09:22:30.512Z,96693.28
2022-10-15T09:24:57.841Z,96691.81
2022-10-15T09:27:36.092Z,96689.03
2022-10-15T09:30:26.608Z,96693.97
2022-10-15T09:33:12.335Z,96692.28
2022-10-15T09:35:44.147Z,96697.66
2022-10-15T09:38:14.280Z,96701.56
2022-10-15T09:41:05.231Z,96707.19
2022-10-15T09:43:36.028Z,96701.97
2022-10-15T09:46:03.344Z,96701.97
2022-10-15T09:48:42.137Z,96706.41
2022-10-15T09:51:28.559Z,96693.16
2022-10-15T09:54:12.820Z,96695.47
2022-10-15T09:56:43.600Z,96696.84
2022-10-15T09:59:19.522Z,96696.19
2022-10-15T10:01:58.638Z,96706.88
2022-10-15T10:04:31.241Z,96718.00
2022-10-15T10:07:00.962Z,96709.47
2022-10-15T10:09:34.856Z,96702.44
2022-10-15T10:12:07.513Z,96715.25
2022-10-15T10:14:37.477Z,96726.63
2022-10-15T10:17:08.685Z,96713.00
2022-10-15T10:19:35.534Z,96731.81
2022-10-15T10:22:12.079Z,96716.22
2022-10-15T10:24:38.850Z,96716.50
2022-10-15T10:27:34.247Z,96713.31
2022-10-15T10:30:02.335Z,96713.66
2022-10-15T10:32:34.303Z,96706.84
2022-10-15T10:35:02.978Z,96711.44
2022-10-15T10:37:29.999Z,96696.13
2022-10-15T10:39:59.113Z,96706.16
2022-10-15T10:42:31.856Z,96697.34
2022-10-15T10:45:35.671Z,96722.22
2022-10-15T10:48:40.854Z,96713.19
2022-10-15T10:51:27.163Z,96714.78
2022-10-15T10:53:57.112Z,96697.41
2022-10-15T10:56:42.430Z,96705.84
2022-10-15T10:59:18.162Z,96703.53
2022-10-15T11:01:47.639Z,96692.72
2022-10-15T11:04:25.011Z,96701.19
2022-10-15T11:06:51.825Z,96700.63
2022-10-15T11:09:32.551Z,96698.31
2022-10-15T11:12:39.540Z,96704.41
2022-10-15T11:15:28.362Z,96695.31
2022-10-15T11:18:02.711Z,96697.66
2022-10-15T11:21:08.432Z,96711.25
2022-10-15T11:23:45.964Z,96704.47
2022-10-15T11:26:58.972Z,96714.25
2022-10-15T11:29:42.150Z,96709.53
2022-10-15T11:33:05.327Z,96702.84
2022-10-15T11:35:54.577Z,96708.84
2022-10-15T11:38:49.040Z,96707.84
2022-10-15T11:41:41.705Z,96715.00
2022-10-15T11:44:20.222Z,96716.97
2022-10-15T11:46:58.158Z,96730.50
2022-10-15T11:49:58.370Z,96718.91
2022-10-15T11:52:58.048Z,96711.78
2022-10-15T11:55:32.756Z,96720.13
2022-10-15T11:58:02.340Z,96693.94
2022-10-15T12:00:40.278Z,96698.94
2022-10-15T12:03:29.276Z,96714.75
2022-10-15T12:06:01.333Z,96731.22
2022-10-15T12:08:35.103Z,96708.75
2022-10-15T12:11:07.616Z,96697.34
2022-10-15T12:13:41.131Z,96697.13
2022-10-15T12:16:26.658Z,96694.22
2022-10-15T12:19:05.241Z,96702.75
2022-10-15T12:21:41.418Z,96700.28
2022-10-15T12:24:44.470Z,96700.94
2022-10-15T12:27:22.824Z,96712.44
2022-10-15T12:29:50.865Z,96701.78
2022-10-15T12:32:25.751Z,96698.34
2022-10-15T12:34:56.315Z,96697.06
2022-10-15T12:37:23.990Z,96701.78
2022-10-15T12:40:23.133Z,96717.72
2022-10-15T12:42:51.275Z,96705.25
2022-10-15T12:45:24.659Z,96703.19
2022-10-15T12:47:55.442Z,96696.34
2022-10-15T12:50:26.837Z,96694.25
2022-10-15T12:53:26.080Z,96690.81
2022-10-15T12:56:18.003Z,96688.97
2022-10-15T12:58:56.632Z,96689.59
2022-10-15T13:01:23.447Z,96690.09
2022-10-15T13:03:53.199Z,96686.53
2022-10-15T13:06:22.711Z,96695.63
2022-10-15T13:08:55.163Z,96688.81
2022-10-15T13:11:29.126Z,96687.19
2022-10-15T13:14:00.767Z,96680.16
2022-10-15T13:16:27.981Z,96688.00
2022-10-15T13:18:55.883Z,96691.59
2022-10-15T13:21:23.579Z,96684.94
2022-10-15T13:23:51.303Z,96683.31
2022-10-15T13:26:19.858Z,96675.19
2022-10-15T13:29:14.416Z,96674.38
2022-10-15T13:31:44.925Z,96672.63
2022-10-15T13:34:19.706Z,96674.88
2022-10-15T13:36:47.207Z,96675.16
2022-10-15T13:39:27.825Z,96671.84
2022-10-15T13:42:24.122Z,96672.91
2022-10-15T13:45:03.260Z,96674.84
2022-10-15T13:47:38.132Z,96668.84
2022-10-15T13:50:26.867Z,96675.53
2022-10-15T13:53:00.848Z,96680.66
2022-10-15T13:55:40.089Z,96683.03
2022-10-15T13:58:24.871Z,96666.22
2022-10-15T14:01:03.892Z,96672.06
2022-10-15T14:03:32.560Z,96678.50
2022-10-15T14:06:14.760Z,96683.25
2022-10-15T14:08:41.472Z,96679.00
2022-10-15T14:11:12.027Z,96658.81
2022-10-15T14:13:58.425Z,96673.56
2022-10-15T14:16:39.537Z,96660.63
2022-10-15T14:19:06.693Z,96666.13
2022-10-15T14:21:34.646Z,96668.06
2022-10-15T14:24:06.763Z,96670.91
2022-10-15T14:26:35.122Z,96665.34
2022-10-15T14:29:02.110Z,96673.44
2022-10-15T14:31:40.634Z,96675.63
2022-10-15T14:34:36.181Z,96682.72
2022-10-15T14:37:03.990Z,96680.13
2022-10-15T14:39:34.731Z,96679.44
2022-10-15T14:42:04.002Z,96667.91
2022-10-15T14:44:45.176Z,96673.91
2022-10-15T14:47:19.937Z,96674.00
2022-10-15T14:49:46.934Z,96682.91
2022-10-15T14:52:17.203Z,96678.59
2022-10-15T14:55:13.081Z,96679.22
2022-10-15T14:57:42.832Z,96678.66
2022-10-15T15:00:27.239Z,96686.84
2022-10-15T15:02:56.944Z,96691.91
2022-10-15T15:05:28.126Z,96681.97
2022-10-15T15:07:57.187Z,96689.38
2022-10-15T15:10:25.772Z,96692.25
2022-10-15T15:12:57.253Z,96695.25
2022-10-15T15:15:25.988Z,96685.19
2022-10-15T15:17:52.605Z,96690.63
2022-10-15T15:20:20.479Z,96690.50
2022-10-15T15:22:50.323Z,96691.56
2022-10-15T15:25:19.803Z,96688.94
2022-10-15T15:27:47.150Z,96691.78
2022-10-15T15:30:21.811Z,96690.50
2022-10-15T15:32:49.091Z,96698.09
2022-10-15T15:35:30.691Z,96701.38
2022-10-15T15:37:57.387Z,96695.75
2022-10-15T15:40:24.030Z,96697.16
2022-10-15T15:42:50.792Z,96690.44
2022-10-15T15:45:23.792Z,96689.16
2022-10-15T15:47:50.688Z,96687.94
2022-10-15T15:50:18.566Z,96701.25
2022-10-15T15:52:45.402Z,96706.06
2022-10-15T15:55:12.976Z,96699.75
2022-10-15T15:57:39.879Z,96706.41
2022-10-15T16:00:07.964Z,96696.69
2022-10-15T16:02:35.439Z,96706.31
2022-10-15T16:05:02.563Z,96705.84
2022-10-15T16:07:29.906Z,96702.22
2022-10-15T16:09:57.102Z,96705.78
2022-10-15T16:12:24.270Z,96697.38
2022-10-15T16:14:52.341Z,96707.03
2022-10-15T16:17:19.199Z,96702.38
2022-10-15T16:19:45.846Z,96699.84
2022-10-15T16:22:13.344Z,96696.84
2022-10-15T16:24:40.024Z,96698.81
2022-10-15T16:27:06.736Z,96699.53
2022-10-15T16:29:33.406Z,96702.44
2022-10-15T16:32:00.244Z,96703.31
2022-10-15T16:34:26.932Z,96708.03
2022-10-15T16:36:53.702Z,96708.69
2022-10-15T16:39:20.380Z,96702.50
2022-10-15T16:41:47.212Z,96711.06
2022-10-15T16:44:13.891Z,96715.31
2022-10-15T16:46:40.711Z,96716.03
2022-10-15T16:49:07.366Z,96724.31
2022-10-15T16:51:35.601Z,96724.47
2022-10-15T16:54:04.291Z,96720.84
2022-10-15T16:56:31.599Z,96721.72
2022-10-15T16:58:58.357Z,96727.38
2022-10-15T17:01:27.750Z,96728.09
2022-10-15T17:03:54.518Z,96724.63
2022-10-15T17:06:23.733Z,96734.66
2022-10-15T17:08:52.566Z,96727.44
2022-10-15T17:11:22.407Z,96735.31
2022-10-15T17:13:50.863Z,96719.03
2022-10-15T17:16:19.278Z,96736.44
2022-10-15T17:18:46.538Z,96735.94
2022-10-15T17:21:20.254Z,96731.22
2022-10-15T17:23:47.323Z,96734.81
2022-10-15T17:26:20.750Z,96737.00
2022-10-15T17:28:49.212Z,96748.88
2022-10-15T17:31:20.871Z,96741.31
2022-10-15T17:33:48.556Z,96747.00
2022-10-15T17:36:20.294Z,96747.72
2022-10-15T17:38:47.193Z,96754.75
2022-10-15T17:41:17.927Z,96760.28
2022-10-15T17:43:45.305Z,96765.97
2022-10-15T17:46:14.298Z,96777.03
2022-10-15T17:48:41.330Z,96772.97
2022-10-15T17:51:32.928Z,96775.13
2022-10-15T17:54:02.277Z,96782.78
2022-10-15T17:56:34.412Z,96780.72
2022-10-15T17:59:03.179Z,96788.38
2022-10-15T18:01:56.070Z,96780.06
2022-10-15T18:04:19.887Z,96784.34
2022-10-15T18:06:46.788Z,96783.63
2022-10-15T18:09:25.308Z,96784.34
2022-10-15T18:11:55.199Z,96785.75
2022-10-15T18:14:22.130Z,96788.50
2022-10-15T18:16:48.921Z,96800.28
2022-10-15T18:19:15.795Z,96796.88
2022-10-15T18:21:46.911Z,96804.47
2022-10-15T18:24:19.248Z,96809.38
2022-10-15T18:26:45.888Z,96806.63
2022-10-15T18:29:12.613Z,96814.91
2022-10-15T18:31:41.096Z,96820.50
2022-10-15T18:34:07.854Z,96822.56
2022-10-15T18:36:34.667Z,96816.41
2022-10-15T18:39:01.391Z,96819.16
2022-10-15T18:41:30.864Z,96819.88
2022-10-15T18:44:20.840Z,96828.16
2022-10-15T18:46:47.861Z,96831.06
2022-10-15T18:49:16.798Z,96828.91
2022-10-15T18:51:46.161Z,96830.31
2022-10-15T18:54:13.528Z,96836.59
2022-10-15T18:56:40.374Z,96835.84
2022-10-15T18:59:07.187Z,96833.19
2022-10-15T19:01:35.576Z,96836.59
2022-10-15T19:04:07.511Z,96842.84
2022-10-15T19:06:37.024Z,96852.47
2022-10-15T19:09:06.340Z,96849.78
2022-10-15T19:11:34.186Z,96853.97
2022-10-15T19:14:02.726Z,96842.91
2022-10-15T19:16:29.526Z,96856.72
2022-10-15T19:19:02.374Z,96857.44
2022-10-15T19:21:29.143Z,96856.72
2022-10-15T19:23:55.896Z,96861.63
2022-10-15T19:26:23.000Z,96853.31
2022-10-15T19:28:51.879Z,96853.31
2022-10-15T19:31:25.956Z,96858.84
2022-10-15T19:33:53.895Z,96852.00
2022-10-15T19:36:23.370Z,96849.22
2022-10-15T19:38:50.244Z,96845.81
2022-10-15T19:41:17.918Z,96849.28
2022-10-15T19:43:44.950Z,96852.00
2022-10-15T19:46:12.431Z,96847.16
2022-10-15T19:48:41.433Z,96834.72
2022-10-15T19:51:08.144Z,96829.19
2022-10-15T19:53:35.147Z,96838.22
2022-10-15T19:56:06.063Z,96838.84
2022-10-15T19:58:33.953Z,96846.50
2022-10-15T20:01:02.634Z,96852.06
2022-10-15T20:03:30.667Z,96849.28
2022-10-15T20:06:00.793Z,96840.97
2022-10-15T20:08:27.619Z,96844.44
2022-10-15T20:10:54.685Z,96843.03
2022-10-15T20:13:22.857Z,96829.91
2022-10-15T20:15:52.102Z,96834.03
2022-10-15T20:18:20.469Z,96849.28
2022-10-15T20:20:47.740Z,96850.63
2022-10-15T20:23:16.267Z,96844.41
2022-10-15T20:25:43.558Z,96847.16
2022-10-15T20:28:11.557Z,96851.25
2022-10-15T20:30:39.097Z,96858.22
2022-10-15T20:33:06.860Z,96863.06
2022-10-15T20:35:35.254Z,96864.38
2022-10-15T20:38:02.679Z,96867.16
2022-10-15T20:40:31.124Z,96862.97
2022-10-15T20:42:57.935Z,96861.63
2022-10-15T20:45:28.723Z,96868.50
2022-10-15T20:47:59.096Z,96865.75
2022-10-15T20:50:27.355Z,96872.28
2022-10-15T20:52:56.664Z,96874.84
2022-10-15T20:55:23.963Z,96873.34
2022-10-15T20:57:51.664Z,96877.47
2022-10-15T21:00:18.698Z,96874.59
2022-10-15T21:02:45.615Z,96871.13
2022-10-15T21:05:12.314Z,96874.59
2022-10-15T21:07:39.206Z,96889.81
2022-10-15T21:10:06.458Z,96882.81
2022-10-15T21:12:33.479Z,96889.81
2022-10-15T21:15:00.282Z,96889.81
2022-10-15T21:17:27.777Z,96892.56
2022-10-15T21:19:54.736Z,96882.81
2022-10-15T21:22:21.559Z,96891.13
2022-10-15T21:24:48.457Z,96895.97
2022-10-15T21:27:15.467Z,96895.25
2022-10-15T21:29:42.967Z,96903.56
2022-10-15T21:32:09.725Z,96908.38
2022-10-15T21:34:36.480Z,96901.44
2022-10-15T21:37:03.365Z,96907.69
2022-10-15T21:39:30.177Z,96911.16
2022-10-15T21:41:56.990Z,96913.22
2022-10-15T21:44:23.688Z,96912.50
2022-10-15T21:46:50.418Z,96915.28
2022-10-15T21:49:17.157Z,96924.19
2022-10-15T21:51:44.187Z,96924.91
2022-10-15T21:54:17.716Z,96920.00
2022-10-15T21:56:44.952Z,96914.47
2022-10-15T21:59:11.632Z,96924.13
2022-10-15T22:01:39.602Z,96925.47
2022-10-15T22:04:09.655Z,96925.47
2022-10-15T22:06:39.922Z,96924.78
2022-10-15T22:09:07.791Z,96921.28
2022-10-15T22:11:36.804Z,96926.09
2022-10-15T22:14:05.623Z,96914.31
2022-10-15T22:16:35.116Z,96914.97
2022-10-15T22:19:02.168Z,96907.38
2022-10-15T22:21:31.120Z,96912.91
2022-10-15T22:24:00.351Z,96910.78
2022-10-15T22:26:29.352Z,96908.72
2022-10-15T22:28:58.025Z,96901.06
2022-10-15T22:31:25.277Z,96902.47
2022-10-15T22:33:52.337Z,96903.81
2022-10-15T22:36:24.593Z,96902.41
2022-10-15T22:39:11.375Z,96902.41
2022-10-15T22:41:40.499Z,96913.47
2022-10-15T22:44:09.212Z,96913.41
2022-10-15T22:46:38.308Z,96898.13
2022-10-15T22:49:06.739Z,96900.91
2022-10-15T22:51:33.996Z,96907.78
2022-10-15T22:54:00.983Z,96909.84
2022-10-15T22:56:28.862Z,96915.31
2022-10-15T22:58:57.047Z,96902.81
2022-10-15T23:01:26.349Z,96911.13
2022-10-15T23:03:55.400Z,96906.94
2022-10-15T23:06:23.073Z,96911.06
2022-10-15T23:08:50.220Z,96906.88
2022-10-15T23:11:19.705Z,96905.44
2022-10-15T23:13:47.530Z,96908.13
2022-10-15T23:16:16.659Z,96912.97
2022-10-15T23:18:44.982Z,96917.78
2022-10-15T23:21:20.946Z,96919.13
2022-10-15T23:23:47.956Z,96931.63
2022-10-15T23:26:16.279Z,96941.25
2022-10-15T23:28:44.224Z,96923.94
2022-10-15T23:31:18.438Z,96928.03
2022-10-15T23:33:45.706Z,96926.63
2022-10-15T23:36:12.547Z,96926.63
2022-10-15T23:38:39.282Z,96934.22
2022-10-15T23:41:07.947Z,96925.13
2022-10-15T23:43:34.917Z,96932.81
2022-10-15T23:46:01.849Z,96934.16
2022-10-15T23:48:29.093Z,96927.19
2022-10-15T23:51:00.709Z,96918.88
2022-10-15T23:53:32.676Z,96922.28
2022-10-15T23:56:01.487Z,96918.81
2022-10-15T23:58:28.276Z,96918.81
